sensor_id;sensor_type;location;lat;lon;timestamp;P1;durP1;ratioP1;P2;durP2;ratioP2
68377;SDS011;55322;48.146;11.516;2023-04-25T00:00:56;5.60;;;1.20;;
68377;SDS011;55322;48.146;11.516;2023-04-25T00:03:22;6.10;;;1.50;;
68377;SDS011;55322;48.146;11.516;2023-04-25T00:05:50;5.78;;;1.40;;
68377;SDS011;55322;48.146;11.516;2023-04-25T00:08:16;5.50;;;1.52;;
68377;SDS011;55322;48.146;11.516;2023-04-25T00:10:42;6.37;;;1.60;;
68377;SDS011;55322;48.146;11.516;2023-04-25T00:13:07;6.85;;;1.50;;
68377;SDS011;55322;48.146;11.516;2023-04-25T00:15:33;4.70;;;1.30;;
68377;SDS011;55322;48.146;11.516;2023-04-25T00:18:00;5.60;;;1.45;;
68377;SDS011;55322;48.146;11.516;2023-04-25T00:20:26;4.50;;;1.10;;
68377;SDS011;55322;48.146;11.516;2023-04-25T00:22:51;5.97;;;1.30;;
68377;SDS011;55322;48.146;11.516;2023-04-25T00:25:18;4.72;;;1.10;;
68377;SDS011;55322;48.146;11.516;2023-04-25T00:27:43;5.07;;;1.30;;
68377;SDS011;55322;48.146;11.516;2023-04-25T00:30:09;5.77;;;1.27;;
68377;SDS011;55322;48.146;11.516;2023-04-25T00:32:35;5.35;;;1.30;;
68377;SDS011;55322;48.146;11.516;2023-04-25T00:35:00;5.57;;;1.37;;
68377;SDS011;55322;48.146;11.516;2023-04-25T00:37:26;4.32;;;1.10;;
68377;SDS011;55322;48.146;11.516;2023-04-25T00:39:52;5.72;;;1.25;;
68377;SDS011;55322;48.146;11.516;2023-04-25T00:42:19;6.78;;;1.60;;
68377;SDS011;55322;48.146;11.516;2023-04-25T00:44:45;5.50;;;1.20;;
68377;SDS011;55322;48.146;11.516;2023-04-25T00:47:11;6.30;;;1.50;;
68377;SDS011;55322;48.146;11.516;2023-04-25T00:49:37;4.80;;;1.30;;
68377;SDS011;55322;48.146;11.516;2023-04-25T00:52:02;4.40;;;1.13;;
68377;SDS011;55322;48.146;11.516;2023-04-25T00:54:28;5.37;;;1.37;;
68377;SDS011;55322;48.146;11.516;2023-04-25T00:56:55;4.88;;;1.38;;
68377;SDS011;55322;48.146;11.516;2023-04-25T00:59:21;5.43;;;1.43;;
68377;SDS011;55322;48.146;11.516;2023-04-25T01:01:46;5.70;;;1.37;;
68377;SDS011;55322;48.146;11.516;2023-04-25T01:04:12;6.35;;;1.30;;
68377;SDS011;55322;48.146;11.516;2023-04-25T01:06:38;4.80;;;1.40;;
68377;SDS011;55322;48.146;11.516;2023-04-25T01:09:03;5.72;;;1.58;;
68377;SDS011;55322;48.146;11.516;2023-04-25T01:11:29;5.03;;;1.40;;
68377;SDS011;55322;48.146;11.516;2023-04-25T01:13:55;7.43;;;1.60;;
68377;SDS011;55322;48.146;11.516;2023-04-25T01:16:20;5.13;;;1.20;;
68377;SDS011;55322;48.146;11.516;2023-04-25T01:18:45;4.40;;;1.30;;
68377;SDS011;55322;48.146;11.516;2023-04-25T01:21:12;4.72;;;1.30;;
68377;SDS011;55322;48.146;11.516;2023-04-25T01:23:40;5.00;;;1.37;;
68377;SDS011;55322;48.146;11.516;2023-04-25T01:26:08;4.45;;;1.27;;
68377;SDS011;55322;48.146;11.516;2023-04-25T01:28:34;6.80;;;1.30;;
68377;SDS011;55322;48.146;11.516;2023-04-25T01:31:00;5.63;;;1.17;;
68377;SDS011;55322;48.146;11.516;2023-04-25T01:33:26;4.20;;;1.15;;
68377;SDS011;55322;48.146;11.516;2023-04-25T01:35:51;4.87;;;1.43;;
68377;SDS011;55322;48.146;11.516;2023-04-25T01:38:17;4.13;;;1.20;;
68377;SDS011;55322;48.146;11.516;2023-04-25T01:40:42;5.17;;;1.73;;
68377;SDS011;55322;48.146;11.516;2023-04-25T01:43:10;4.75;;;1.25;;
68377;SDS011;55322;48.146;11.516;2023-04-25T01:45:37;6.13;;;1.73;;
68377;SDS011;55322;48.146;11.516;2023-04-25T01:48:06;4.90;;;1.40;;
68377;SDS011;55322;48.146;11.516;2023-04-25T01:50:32;4.63;;;1.30;;
68377;SDS011;55322;48.146;11.516;2023-04-25T01:52:57;6.57;;;1.55;;
68377;SDS011;55322;48.146;11.516;2023-04-25T01:55:23;4.80;;;1.60;;
68377;SDS011;55322;48.146;11.516;2023-04-25T01:57:48;5.77;;;1.30;;
68377;SDS011;55322;48.146;11.516;2023-04-25T02:00:13;5.40;;;1.60;;
68377;SDS011;55322;48.146;11.516;2023-04-25T02:02:39;5.83;;;1.50;;
68377;SDS011;55322;48.146;11.516;2023-04-25T02:05:05;5.27;;;1.30;;
68377;SDS011;55322;48.146;11.516;2023-04-25T02:07:31;6.15;;;1.60;;
68377;SDS011;55322;48.146;11.516;2023-04-25T02:09:57;7.93;;;1.53;;
68377;SDS011;55322;48.146;11.516;2023-04-25T02:12:22;6.30;;;1.50;;
68377;SDS011;55322;48.146;11.516;2023-04-25T02:14:48;6.00;;;1.47;;
68377;SDS011;55322;48.146;11.516;2023-04-25T02:17:13;6.50;;;1.83;;
68377;SDS011;55322;48.146;11.516;2023-04-25T02:19:39;5.93;;;1.60;;
68377;SDS011;55322;48.146;11.516;2023-04-25T02:22:04;6.75;;;1.70;;
68377;SDS011;55322;48.146;11.516;2023-04-25T02:24:30;4.57;;;1.43;;
68377;SDS011;55322;48.146;11.516;2023-04-25T02:26:56;5.68;;;1.50;;
68377;SDS011;55322;48.146;11.516;2023-04-25T02:29:22;4.97;;;1.40;;
68377;SDS011;55322;48.146;11.516;2023-04-25T02:31:47;7.10;;;1.40;;
68377;SDS011;55322;48.146;11.516;2023-04-25T02:34:13;5.05;;;1.60;;
68377;SDS011;55322;48.146;11.516;2023-04-25T02:36:38;5.10;;;1.70;;
68377;SDS011;55322;48.146;11.516;2023-04-25T02:39:03;5.53;;;1.40;;
68377;SDS011;55322;48.146;11.516;2023-04-25T02:41:29;7.93;;;1.50;;
68377;SDS011;55322;48.146;11.516;2023-04-25T02:43:54;4.77;;;1.50;;
68377;SDS011;55322;48.146;11.516;2023-04-25T02:46:19;5.53;;;1.80;;
68377;SDS011;55322;48.146;11.516;2023-04-25T02:48:45;5.72;;;1.50;;
68377;SDS011;55322;48.146;11.516;2023-04-25T02:51:10;5.73;;;1.40;;
68377;SDS011;55322;48.146;11.516;2023-04-25T02:53:35;5.63;;;1.20;;
68377;SDS011;55322;48.146;11.516;2023-04-25T02:56:01;6.63;;;1.50;;
68377;SDS011;55322;48.146;11.516;2023-04-25T02:58:26;4.67;;;1.47;;
68377;SDS011;55322;48.146;11.516;2023-04-25T03:00:52;6.00;;;1.40;;
68377;SDS011;55322;48.146;11.516;2023-04-25T03:03:17;6.13;;;2.07;;
68377;SDS011;55322;48.146;11.516;2023-04-25T03:05:43;5.68;;;1.48;;
68377;SDS011;55322;48.146;11.516;2023-04-25T03:08:08;6.90;;;1.53;;
68377;SDS011;55322;48.146;11.516;2023-04-25T03:10:34;5.50;;;1.60;;
68377;SDS011;55322;48.146;11.516;2023-04-25T03:12:59;6.80;;;1.70;;
68377;SDS011;55322;48.146;11.516;2023-04-25T03:15:25;6.53;;;1.70;;
68377;SDS011;55322;48.146;11.516;2023-04-25T03:17:50;5.87;;;1.30;;
68377;SDS011;55322;48.146;11.516;2023-04-25T03:20:15;7.83;;;1.90;;
68377;SDS011;55322;48.146;11.516;2023-04-25T03:22:41;6.30;;;1.70;;
68377;SDS011;55322;48.146;11.516;2023-04-25T03:25:06;5.83;;;1.50;;
68377;SDS011;55322;48.146;11.516;2023-04-25T03:27:32;5.32;;;1.48;;
68377;SDS011;55322;48.146;11.516;2023-04-25T03:29:58;5.33;;;1.40;;
68377;SDS011;55322;48.146;11.516;2023-04-25T03:32:23;4.93;;;1.23;;
68377;SDS011;55322;48.146;11.516;2023-04-25T03:34:48;5.47;;;1.50;;
68377;SDS011;55322;48.146;11.516;2023-04-25T03:37:13;4.70;;;1.50;;
68377;SDS011;55322;48.146;11.516;2023-04-25T03:39:39;5.63;;;1.30;;
68377;SDS011;55322;48.146;11.516;2023-04-25T03:42:04;7.28;;;1.20;;
68377;SDS011;55322;48.146;11.516;2023-04-25T03:44:30;5.33;;;1.10;;
68377;SDS011;55322;48.146;11.516;2023-04-25T03:46:55;5.20;;;1.30;;
68377;SDS011;55322;48.146;11.516;2023-04-25T03:49:20;4.50;;;1.17;;
68377;SDS011;55322;48.146;11.516;2023-04-25T03:51:46;4.47;;;1.00;;
68377;SDS011;55322;48.146;11.516;2023-04-25T03:54:11;4.50;;;0.93;;
68377;SDS011;55322;48.146;11.516;2023-04-25T03:56:36;4.93;;;1.10;;
68377;SDS011;55322;48.146;11.516;2023-04-25T03:59:01;4.23;;;1.00;;
68377;SDS011;55322;48.146;11.516;2023-04-25T04:01:27;5.90;;;1.00;;
68377;SDS011;55322;48.146;11.516;2023-04-25T04:03:52;3.93;;;0.80;;
68377;SDS011;55322;48.146;11.516;2023-04-25T04:06:17;4.73;;;1.00;;
68377;SDS011;55322;48.146;11.516;2023-04-25T04:08:43;4.35;;;0.98;;
68377;SDS011;55322;48.146;11.516;2023-04-25T04:11:09;5.20;;;1.10;;
68377;SDS011;55322;48.146;11.516;2023-04-25T04:13:34;4.87;;;0.97;;
68377;SDS011;55322;48.146;11.516;2023-04-25T04:15:59;4.87;;;1.00;;
68377;SDS011;55322;48.146;11.516;2023-04-25T04:18:25;4.90;;;1.00;;
68377;SDS011;55322;48.146;11.516;2023-04-25T04:20:50;5.93;;;1.00;;
68377;SDS011;55322;48.146;11.516;2023-04-25T04:23:15;4.87;;;1.10;;
68377;SDS011;55322;48.146;11.516;2023-04-25T04:25:41;5.10;;;0.98;;
68377;SDS011;55322;48.146;11.516;2023-04-25T04:28:06;4.50;;;1.00;;
68377;SDS011;55322;48.146;11.516;2023-04-25T04:30:32;4.63;;;1.00;;
68377;SDS011;55322;48.146;11.516;2023-04-25T04:33:01;5.22;;;1.15;;
68377;SDS011;55322;48.146;11.516;2023-04-25T04:35:26;4.57;;;0.93;;
68377;SDS011;55322;48.146;11.516;2023-04-25T04:37:52;5.53;;;1.10;;
68377;SDS011;55322;48.146;11.516;2023-04-25T04:40:18;5.78;;;1.27;;
68377;SDS011;55322;48.146;11.516;2023-04-25T04:42:44;5.28;;;1.10;;
68377;SDS011;55322;48.146;11.516;2023-04-25T04:45:13;5.57;;;1.50;;
68377;SDS011;55322;48.146;11.516;2023-04-25T04:47:39;4.47;;;1.10;;
68377;SDS011;55322;48.146;11.516;2023-04-25T04:50:08;4.55;;;1.17;;
68377;SDS011;55322;48.146;11.516;2023-04-25T04:52:34;7.40;;;1.40;;
68377;SDS011;55322;48.146;11.516;2023-04-25T04:55:01;4.93;;;1.25;;
68377;SDS011;55322;48.146;11.516;2023-04-25T04:57:27;4.30;;;1.10;;
68377;SDS011;55322;48.146;11.516;2023-04-25T04:59:53;7.07;;;1.30;;
68377;SDS011;55322;48.146;11.516;2023-04-25T05:02:18;5.63;;;1.30;;
68377;SDS011;55322;48.146;11.516;2023-04-25T05:04:44;5.13;;;1.40;;
68377;SDS011;55322;48.146;11.516;2023-04-25T05:07:10;6.03;;;1.30;;
68377;SDS011;55322;48.146;11.516;2023-04-25T05:09:35;5.43;;;1.30;;
68377;SDS011;55322;48.146;11.516;2023-04-25T05:12:00;6.27;;;1.43;;
68377;SDS011;55322;48.146;11.516;2023-04-25T05:14:26;7.13;;;1.38;;
68377;SDS011;55322;48.146;11.516;2023-04-25T05:16:51;5.90;;;1.40;;
68377;SDS011;55322;48.146;11.516;2023-04-25T05:19:16;5.80;;;1.40;;
68377;SDS011;55322;48.146;11.516;2023-04-25T05:21:42;5.90;;;1.40;;
68377;SDS011;55322;48.146;11.516;2023-04-25T05:24:08;9.75;;;1.50;;
68377;SDS011;55322;48.146;11.516;2023-04-25T05:26:33;5.03;;;1.30;;
68377;SDS011;55322;48.146;11.516;2023-04-25T05:28:59;6.63;;;1.33;;
68377;SDS011;55322;48.146;11.516;2023-04-25T05:31:24;5.75;;;1.35;;
68377;SDS011;55322;48.146;11.516;2023-04-25T05:33:50;6.00;;;1.60;;
68377;SDS011;55322;48.146;11.516;2023-04-25T05:36:16;6.65;;;1.45;;
68377;SDS011;55322;48.146;11.516;2023-04-25T05:38:41;6.33;;;1.30;;
68377;SDS011;55322;48.146;11.516;2023-04-25T05:41:06;5.77;;;1.47;;
68377;SDS011;55322;48.146;11.516;2023-04-25T05:43:32;5.50;;;1.50;;
68377;SDS011;55322;48.146;11.516;2023-04-25T05:45:57;7.10;;;1.43;;
68377;SDS011;55322;48.146;11.516;2023-04-25T05:48:23;5.50;;;1.40;;
68377;SDS011;55322;48.146;11.516;2023-04-25T05:50:48;6.27;;;1.30;;
68377;SDS011;55322;48.146;11.516;2023-04-25T05:53:14;7.57;;;1.87;;
68377;SDS011;55322;48.146;11.516;2023-04-25T05:55:39;5.83;;;1.10;;
68377;SDS011;55322;48.146;11.516;2023-04-25T05:58:05;9.80;;;1.30;;
68377;SDS011;55322;48.146;11.516;2023-04-25T06:00:31;6.22;;;1.23;;
68377;SDS011;55322;48.146;11.516;2023-04-25T06:02:56;6.33;;;1.40;;
68377;SDS011;55322;48.146;11.516;2023-04-25T06:05:22;4.97;;;1.23;;
68377;SDS011;55322;48.146;11.516;2023-04-25T06:07:47;5.85;;;1.40;;
68377;SDS011;55322;48.146;11.516;2023-04-25T06:10:12;6.47;;;1.63;;
68377;SDS011;55322;48.146;11.516;2023-04-25T06:12:37;5.30;;;1.40;;
68377;SDS011;55322;48.146;11.516;2023-04-25T06:15:03;7.60;;;1.50;;
68377;SDS011;55322;48.146;11.516;2023-04-25T06:17:29;6.55;;;2.00;;
68377;SDS011;55322;48.146;11.516;2023-04-25T06:19:55;7.30;;;1.67;;
68377;SDS011;55322;48.146;11.516;2023-04-25T06:22:20;6.00;;;1.80;;
68377;SDS011;55322;48.146;11.516;2023-04-25T06:24:46;7.60;;;1.90;;
68377;SDS011;55322;48.146;11.516;2023-04-25T06:27:11;6.90;;;2.27;;
68377;SDS011;55322;48.146;11.516;2023-04-25T06:29:37;7.47;;;2.10;;
68377;SDS011;55322;48.146;11.516;2023-04-25T06:32:02;5.90;;;1.80;;
68377;SDS011;55322;48.146;11.516;2023-04-25T06:34:27;6.60;;;1.80;;
68377;SDS011;55322;48.146;11.516;2023-04-25T06:36:52;7.00;;;1.97;;
68377;SDS011;55322;48.146;11.516;2023-04-25T06:39:18;6.27;;;2.10;;
68377;SDS011;55322;48.146;11.516;2023-04-25T06:41:45;5.70;;;1.88;;
68377;SDS011;55322;48.146;11.516;2023-04-25T06:44:10;5.57;;;2.00;;
68377;SDS011;55322;48.146;11.516;2023-04-25T06:46:35;7.15;;;1.92;;
68377;SDS011;55322;48.146;11.516;2023-04-25T06:49:01;6.30;;;2.10;;
68377;SDS011;55322;48.146;11.516;2023-04-25T06:51:27;7.17;;;2.30;;
68377;SDS011;55322;48.146;11.516;2023-04-25T06:53:54;7.40;;;1.90;;
68377;SDS011;55322;48.146;11.516;2023-04-25T06:56:19;5.57;;;1.70;;
68377;SDS011;55322;48.146;11.516;2023-04-25T06:58:46;6.88;;;1.70;;
68377;SDS011;55322;48.146;11.516;2023-04-25T07:01:11;6.23;;;1.90;;
68377;SDS011;55322;48.146;11.516;2023-04-25T07:03:36;5.97;;;1.90;;
68377;SDS011;55322;48.146;11.516;2023-04-25T07:06:03;5.82;;;1.58;;
68377;SDS011;55322;48.146;11.516;2023-04-25T07:08:28;8.13;;;1.70;;
68377;SDS011;55322;48.146;11.516;2023-04-25T07:10:54;5.07;;;1.40;;
68377;SDS011;55322;48.146;11.516;2023-04-25T07:13:19;6.77;;;1.80;;
68377;SDS011;55322;48.146;11.516;2023-04-25T07:15:45;5.83;;;1.83;;
68377;SDS011;55322;48.146;11.516;2023-04-25T07:18:12;7.32;;;1.75;;
68377;SDS011;55322;48.146;11.516;2023-04-25T07:20:38;5.17;;;1.60;;
68377;SDS011;55322;48.146;11.516;2023-04-25T07:23:03;5.57;;;1.40;;
68377;SDS011;55322;48.146;11.516;2023-04-25T07:25:28;6.07;;;1.60;;
68377;SDS011;55322;48.146;11.516;2023-04-25T07:27:55;7.47;;;2.10;;
68377;SDS011;55322;48.146;11.516;2023-04-25T07:30:21;5.40;;;1.73;;
68377;SDS011;55322;48.146;11.516;2023-04-25T07:32:47;5.60;;;1.65;;
68377;SDS011;55322;48.146;11.516;2023-04-25T07:35:13;6.35;;;1.75;;
68377;SDS011;55322;48.146;11.516;2023-04-25T07:37:39;6.03;;;1.60;;
68377;SDS011;55322;48.146;11.516;2023-04-25T07:40:04;6.43;;;1.50;;
68377;SDS011;55322;48.146;11.516;2023-04-25T07:42:30;6.50;;;1.77;;
68377;SDS011;55322;48.146;11.516;2023-04-25T07:44:56;6.30;;;1.80;;
68377;SDS011;55322;48.146;11.516;2023-04-25T07:47:21;5.78;;;1.60;;
68377;SDS011;55322;48.146;11.516;2023-04-25T07:49:46;5.87;;;1.53;;
68377;SDS011;55322;48.146;11.516;2023-04-25T07:52:12;6.80;;;1.93;;
68377;SDS011;55322;48.146;11.516;2023-04-25T07:54:38;8.02;;;1.88;;
68377;SDS011;55322;48.146;11.516;2023-04-25T07:57:03;5.17;;;1.53;;
68377;SDS011;55322;48.146;11.516;2023-04-25T07:59:28;6.83;;;1.90;;
68377;SDS011;55322;48.146;11.516;2023-04-25T08:01:54;5.50;;;1.40;;
68377;SDS011;55322;48.146;11.516;2023-04-25T08:04:19;5.93;;;1.92;;
68377;SDS011;55322;48.146;11.516;2023-04-25T08:06:45;7.23;;;1.80;;
68377;SDS011;55322;48.146;11.516;2023-04-25T08:09:10;6.70;;;1.90;;
68377;SDS011;55322;48.146;11.516;2023-04-25T08:11:36;6.60;;;1.63;;
68377;SDS011;55322;48.146;11.516;2023-04-25T08:14:01;5.10;;;1.50;;
68377;SDS011;55322;48.146;11.516;2023-04-25T08:16:27;7.77;;;1.77;;
68377;SDS011;55322;48.146;11.516;2023-04-25T08:18:52;7.23;;;1.80;;
68377;SDS011;55322;48.146;11.516;2023-04-25T08:21:18;6.13;;;1.73;;
68377;SDS011;55322;48.146;11.516;2023-04-25T08:23:43;5.30;;;1.50;;
68377;SDS011;55322;48.146;11.516;2023-04-25T08:26:08;5.90;;;2.30;;
68377;SDS011;55322;48.146;11.516;2023-04-25T08:28:34;6.90;;;1.63;;
68377;SDS011;55322;48.146;11.516;2023-04-25T08:30:59;7.07;;;1.80;;
68377;SDS011;55322;48.146;11.516;2023-04-25T08:33:24;6.80;;;1.47;;
68377;SDS011;55322;48.146;11.516;2023-04-25T08:35:50;5.50;;;1.60;;
68377;SDS011;55322;48.146;11.516;2023-04-25T08:38:15;6.57;;;1.50;;
68377;SDS011;55322;48.146;11.516;2023-04-25T08:40:42;4.75;;;1.20;;
68377;SDS011;55322;48.146;11.516;2023-04-25T08:43:08;7.07;;;1.40;;
68377;SDS011;55322;48.146;11.516;2023-04-25T08:45:40;5.57;;;1.50;;
68377;SDS011;55322;48.146;11.516;2023-04-25T08:48:11;5.47;;;1.38;;
68377;SDS011;55322;48.146;11.516;2023-04-25T08:50:59;7.05;;;1.48;;
68377;SDS011;55322;48.146;11.516;2023-04-25T08:53:27;6.80;;;1.65;;
68377;SDS011;55322;48.146;11.516;2023-04-25T08:55:54;5.27;;;1.20;;
68377;SDS011;55322;48.146;11.516;2023-04-25T08:58:20;4.80;;;1.17;;
68377;SDS011;55322;48.146;11.516;2023-04-25T09:00:46;4.75;;;1.10;;
68377;SDS011;55322;48.146;11.516;2023-04-25T09:03:13;5.60;;;1.20;;
68377;SDS011;55322;48.146;11.516;2023-04-25T09:05:39;4.90;;;1.20;;
68377;SDS011;55322;48.146;11.516;2023-04-25T09:08:05;4.93;;;1.10;;
68377;SDS011;55322;48.146;11.516;2023-04-25T09:10:31;7.03;;;1.38;;
68377;SDS011;55322;48.146;11.516;2023-04-25T09:13:07;5.47;;;1.10;;
68377;SDS011;55322;48.146;11.516;2023-04-25T09:15:49;4.65;;;1.02;;
68377;SDS011;55322;48.146;11.516;2023-04-25T09:18:22;4.70;;;1.10;;
68377;SDS011;55322;48.146;11.516;2023-04-25T09:20:55;5.45;;;1.00;;
68377;SDS011;55322;48.146;11.516;2023-04-25T09:23:23;3.77;;;0.97;;
68377;SDS011;55322;48.146;11.516;2023-04-25T09:25:49;5.13;;;1.10;;
68377;SDS011;55322;48.146;11.516;2023-04-25T09:28:16;3.95;;;0.90;;
68377;SDS011;55322;48.146;11.516;2023-04-25T09:30:41;5.03;;;1.10;;
68377;SDS011;55322;48.146;11.516;2023-04-25T09:33:07;4.15;;;0.80;;
68377;SDS011;55322;48.146;11.516;2023-04-25T09:35:38;7.13;;;1.13;;
68377;SDS011;55322;48.146;11.516;2023-04-25T09:38:14;5.47;;;0.90;;
68377;SDS011;55322;48.146;11.516;2023-04-25T09:40:41;3.90;;;0.85;;
68377;SDS011;55322;48.146;11.516;2023-04-25T09:43:20;4.93;;;1.10;;
68377;SDS011;55322;48.146;11.516;2023-04-25T09:45:50;5.50;;;1.00;;
68377;SDS011;55322;48.146;11.516;2023-04-25T09:50:45;4.10;;;1.00;;
68377;SDS011;55322;48.146;11.516;2023-04-25T09:53:28;5.20;;;1.10;;
68377;SDS011;55322;48.146;11.516;2023-04-25T09:55:54;4.50;;;1.08;;
68377;SDS011;55322;48.146;11.516;2023-04-25T09:58:21;4.33;;;0.93;;
68377;SDS011;55322;48.146;11.516;2023-04-25T10:00:49;5.05;;;1.05;;
68377;SDS011;55322;48.146;11.516;2023-04-25T10:03:15;5.22;;;1.27;;
68377;SDS011;55322;48.146;11.516;2023-04-25T10:05:42;4.63;;;0.82;;
68377;SDS011;55322;48.146;11.516;2023-04-25T10:08:08;4.93;;;1.00;;
68377;SDS011;55322;48.146;11.516;2023-04-25T10:10:35;4.37;;;1.20;;
68377;SDS011;55322;48.146;11.516;2023-04-25T10:13:04;5.78;;;1.50;;
68377;SDS011;55322;48.146;11.516;2023-04-25T10:15:32;4.72;;;1.10;;
68377;SDS011;55322;48.146;11.516;2023-04-25T10:18:00;5.70;;;1.27;;
68377;SDS011;55322;48.146;11.516;2023-04-25T10:20:26;5.25;;;1.10;;
68377;SDS011;55322;48.146;11.516;2023-04-25T10:22:51;5.17;;;1.00;;
68377;SDS011;55322;48.146;11.516;2023-04-25T10:25:21;4.47;;;0.80;;
68377;SDS011;55322;48.146;11.516;2023-04-25T10:27:50;4.03;;;1.10;;
68377;SDS011;55322;48.146;11.516;2023-04-25T10:30:16;4.85;;;1.00;;
68377;SDS011;55322;48.146;11.516;2023-04-25T10:32:43;4.95;;;0.95;;
68377;SDS011;55322;48.146;11.516;2023-04-25T10:35:17;5.88;;;1.17;;
68377;SDS011;55322;48.146;11.516;2023-04-25T10:37:59;3.80;;;0.70;;
68377;SDS011;55322;48.146;11.516;2023-04-25T10:40:28;3.45;;;0.88;;
68377;SDS011;55322;48.146;11.516;2023-04-25T10:42:54;4.53;;;0.80;;
68377;SDS011;55322;48.146;11.516;2023-04-25T10:45:20;5.65;;;0.70;;
68377;SDS011;55322;48.146;11.516;2023-04-25T10:47:45;4.50;;;0.80;;
68377;SDS011;55322;48.146;11.516;2023-04-25T10:50:11;4.27;;;0.67;;
68377;SDS011;55322;48.146;11.516;2023-04-25T10:52:38;4.18;;;0.85;;
68377;SDS011;55322;48.146;11.516;2023-04-25T10:55:05;4.43;;;0.82;;
68377;SDS011;55322;48.146;11.516;2023-04-25T10:57:32;3.90;;;0.83;;
68377;SDS011;55322;48.146;11.516;2023-04-25T11:00:10;5.47;;;1.20;;
68377;SDS011;55322;48.146;11.516;2023-04-25T11:02:37;4.43;;;1.00;;
68377;SDS011;55322;48.146;11.516;2023-04-25T11:05:05;4.20;;;1.00;;
68377;SDS011;55322;48.146;11.516;2023-04-25T11:07:33;3.83;;;0.70;;
68377;SDS011;55322;48.146;11.516;2023-04-25T11:10:03;5.13;;;0.88;;
68377;SDS011;55322;48.146;11.516;2023-04-25T11:12:29;4.70;;;1.10;;
68377;SDS011;55322;48.146;11.516;2023-04-25T11:15:00;5.18;;;1.00;;
68377;SDS011;55322;48.146;11.516;2023-04-25T11:17:29;3.17;;;0.60;;
68377;SDS011;55322;48.146;11.516;2023-04-25T11:19:55;3.33;;;0.53;;
68377;SDS011;55322;48.146;11.516;2023-04-25T11:22:21;4.38;;;0.60;;
68377;SDS011;55322;48.146;11.516;2023-04-25T11:24:47;3.63;;;0.60;;
68377;SDS011;55322;48.146;11.516;2023-04-25T11:27:12;3.30;;;0.70;;
68377;SDS011;55322;48.146;11.516;2023-04-25T11:29:37;4.43;;;0.70;;
68377;SDS011;55322;48.146;11.516;2023-04-25T11:32:03;4.67;;;0.80;;
68377;SDS011;55322;48.146;11.516;2023-04-25T11:34:29;4.30;;;0.90;;
68377;SDS011;55322;48.146;11.516;2023-04-25T11:36:56;4.87;;;0.90;;
68377;SDS011;55322;48.146;11.516;2023-04-25T11:39:23;3.88;;;0.75;;
68377;SDS011;55322;48.146;11.516;2023-04-25T11:41:49;4.72;;;0.80;;
68377;SDS011;55322;48.146;11.516;2023-04-25T11:44:15;5.73;;;1.13;;
68377;SDS011;55322;48.146;11.516;2023-04-25T11:46:41;7.07;;;1.23;;
68377;SDS011;55322;48.146;11.516;2023-04-25T11:49:07;5.50;;;1.13;;
68377;SDS011;55322;48.146;11.516;2023-04-25T11:51:42;5.10;;;0.90;;
68377;SDS011;55322;48.146;11.516;2023-04-25T11:54:09;4.80;;;1.10;;
68377;SDS011;55322;48.146;11.516;2023-04-25T11:56:35;4.85;;;1.00;;
68377;SDS011;55322;48.146;11.516;2023-04-25T11:59:01;3.63;;;0.80;;
68377;SDS011;55322;48.146;11.516;2023-04-25T12:01:31;4.43;;;0.80;;
68377;SDS011;55322;48.146;11.516;2023-04-25T12:04:14;3.30;;;0.60;;
68377;SDS011;55322;48.146;11.516;2023-04-25T12:06:44;3.50;;;0.60;;
68377;SDS011;55322;48.146;11.516;2023-04-25T12:09:13;2.92;;;0.55;;
68377;SDS011;55322;48.146;11.516;2023-04-25T12:11:41;3.25;;;0.60;;
68377;SDS011;55322;48.146;11.516;2023-04-25T12:14:10;4.50;;;0.60;;
68377;SDS011;55322;48.146;11.516;2023-04-25T12:16:46;3.10;;;0.60;;
68377;SDS011;55322;48.146;11.516;2023-04-25T12:19:18;3.53;;;0.50;;
68377;SDS011;55322;48.146;11.516;2023-04-25T12:21:45;3.28;;;0.52;;
68377;SDS011;55322;48.146;11.516;2023-04-25T12:24:15;4.20;;;0.57;;
68377;SDS011;55322;48.146;11.516;2023-04-25T12:26:50;3.03;;;0.50;;
68377;SDS011;55322;48.146;11.516;2023-04-25T12:29:25;3.05;;;0.50;;
68377;SDS011;55322;48.146;11.516;2023-04-25T12:31:52;4.82;;;0.60;;
68377;SDS011;55322;48.146;11.516;2023-04-25T12:34:18;3.42;;;0.63;;
68377;SDS011;55322;48.146;11.516;2023-04-25T12:36:44;3.35;;;0.80;;
68377;SDS011;55322;48.146;11.516;2023-04-25T12:41:46;3.15;;;0.57;;
68377;SDS011;55322;48.146;11.516;2023-04-25T12:44:12;3.83;;;0.63;;
68377;SDS011;55322;48.146;11.516;2023-04-25T12:46:38;3.40;;;0.67;;
68377;SDS011;55322;48.146;11.516;2023-04-25T12:49:04;3.80;;;0.73;;
68377;SDS011;55322;48.146;11.516;2023-04-25T12:51:31;3.50;;;0.60;;
68377;SDS011;55322;48.146;11.516;2023-04-25T12:53:57;3.33;;;0.60;;
68377;SDS011;55322;48.146;11.516;2023-04-25T12:56:23;3.67;;;0.70;;
68377;SDS011;55322;48.146;11.516;2023-04-25T12:58:49;2.88;;;0.50;;
68377;SDS011;55322;48.146;11.516;2023-04-25T13:01:14;3.40;;;0.70;;
68377;SDS011;55322;48.146;11.516;2023-04-25T13:03:40;3.30;;;0.63;;
68377;SDS011;55322;48.146;11.516;2023-04-25T13:06:06;3.50;;;0.60;;
68377;SDS011;55322;48.146;11.516;2023-04-25T13:08:32;3.22;;;0.75;;
68377;SDS011;55322;48.146;11.516;2023-04-25T13:10:57;3.00;;;0.50;;
68377;SDS011;55322;48.146;11.516;2023-04-25T13:13:22;3.80;;;0.50;;
68377;SDS011;55322;48.146;11.516;2023-04-25T13:15:48;3.45;;;0.60;;
68377;SDS011;55322;48.146;11.516;2023-04-25T13:18:13;3.40;;;0.57;;
68377;SDS011;55322;48.146;11.516;2023-04-25T13:20:39;3.53;;;0.60;;
68377;SDS011;55322;48.146;11.516;2023-04-25T13:23:04;4.22;;;0.60;;
68377;SDS011;55322;48.146;11.516;2023-04-25T13:25:30;2.97;;;0.60;;
68377;SDS011;55322;48.146;11.516;2023-04-25T13:27:55;3.90;;;0.63;;
68377;SDS011;55322;48.146;11.516;2023-04-25T13:30:20;3.50;;;0.60;;
68377;SDS011;55322;48.146;11.516;2023-04-25T13:32:46;4.70;;;0.80;;
68377;SDS011;55322;48.146;11.516;2023-04-25T13:35:12;3.27;;;0.67;;
68377;SDS011;55322;48.146;11.516;2023-04-25T13:37:38;3.50;;;0.70;;
68377;SDS011;55322;48.146;11.516;2023-04-25T13:40:05;3.42;;;0.70;;
68377;SDS011;55322;48.146;11.516;2023-04-25T13:42:36;3.67;;;0.60;;
68377;SDS011;55322;48.146;11.516;2023-04-25T13:45:02;3.05;;;0.50;;
68377;SDS011;55322;48.146;11.516;2023-04-25T13:47:28;3.05;;;0.55;;
68377;SDS011;55322;48.146;11.516;2023-04-25T13:49:53;3.58;;;0.60;;
68377;SDS011;55322;48.146;11.516;2023-04-25T13:52:19;3.10;;;0.57;;
68377;SDS011;55322;48.146;11.516;2023-04-25T13:54:45;3.35;;;0.60;;
68377;SDS011;55322;48.146;11.516;2023-04-25T13:57:10;3.70;;;0.80;;
68377;SDS011;55322;48.146;11.516;2023-04-25T13:59:36;3.97;;;0.60;;
68377;SDS011;55322;48.146;11.516;2023-04-25T14:02:02;3.53;;;0.70;;
68377;SDS011;55322;48.146;11.516;2023-04-25T14:04:28;3.93;;;0.77;;
68377;SDS011;55322;48.146;11.516;2023-04-25T14:06:53;3.03;;;0.60;;
68377;SDS011;55322;48.146;11.516;2023-04-25T14:09:19;4.00;;;0.80;;
68377;SDS011;55322;48.146;11.516;2023-04-25T14:11:50;3.28;;;0.63;;
68377;SDS011;55322;48.146;11.516;2023-04-25T14:14:15;3.60;;;0.80;;
68377;SDS011;55322;48.146;11.516;2023-04-25T14:16:41;3.80;;;0.80;;
68377;SDS011;55322;48.146;11.516;2023-04-25T14:19:06;4.45;;;0.85;;
68377;SDS011;55322;48.146;11.516;2023-04-25T14:21:32;3.93;;;0.87;;
68377;SDS011;55322;48.146;11.516;2023-04-25T14:23:57;3.27;;;0.67;;
68377;SDS011;55322;48.146;11.516;2023-04-25T14:26:23;3.37;;;0.53;;
68377;SDS011;55322;48.146;11.516;2023-04-25T14:28:48;3.03;;;0.50;;
68377;SDS011;55322;48.146;11.516;2023-04-25T14:31:13;3.30;;;0.60;;
68377;SDS011;55322;48.146;11.516;2023-04-25T14:33:39;3.83;;;0.67;;